Pickering, Louisiana
Current Conditions -  °F | °C
As of 5:58 AM on Friday 24 Oct 2014 (Local Time) from KPOE Reporting Station
Clear Clear  
Wind Chill: 51°   Ceiling: Unl
Heat Index: 51°   Visibility: 9mi
Dew Point: 49°   Wind: 5mph
Humidity: 92%   Direction: 40°NE
Pressure: 30.13"   Gusts: NA
Location:  31.2063°N, 93.1344°W
Report Text: KPOE 241058Z AUTO 04004KT 9SM CLR 11/09 A3013 RMK AO2 SLP204 T01060094
Loading
Personal Weather Stations






























Interactive Weather Map
Tropical Storm Tracking
New forecast layout! Learn more

10-Day Weather Forecast

Advertisements
Track Severe Weather on mobile